Time;durP1;ratioP1;P1;durP2;ratioP2;P2;SDS_P1;SDS_P2;PMS_P1;PMS_P2;Temp;Humidity;BMP_temperature;BMP_pressure;BME280_temperature;BME280_humidity;BME280_pressure;Samples;Min_cycle;Max_cycle;Signal;HPM_P1;HPM_P2
2022/05/21 00:01:02;;;;;;;0.00;0.00;;;24.50;62.20;;;;;;4202334;28;20082;-68
2022/05/21 00:03:26;;;;;;;0.00;0.00;;;24.40;62.70;;;;;;4202447;28;20123;-68
2022/05/21 00:05:51;;;;;;;0.00;0.00;;;24.20;65.60;;;;;;4231072;28;20424;-69
2022/05/21 00:08:15;;;;;;;0.00;0.00;;;24.10;65.90;;;;;;4137195;28;20503;-67
2022/05/21 00:10:50;;;;;;;0.00;0.00;;;24.00;65.70;;;;;;4130919;28;20058;-68
2022/05/21 00:13:23;;;;;;;0.00;0.00;;;23.90;66.40;;;;;;4174689;28;20183;-68
2022/05/21 00:15:48;;;;;;;0.00;0.00;;;23.70;66.00;;;;;;4130903;28;20088;-70
2022/05/21 00:18:14;;;;;;;0.00;0.00;;;23.70;66.30;;;;;;4131968;28;20156;-67
2022/05/21 00:20:47;;;;;;;0.00;0.00;;;23.70;67.10;;;;;;4132481;28;20053;-71
2022/05/21 00:23:21;;;;;;;0.00;0.00;;;23.80;67.90;;;;;;4158244;28;20054;-68
2022/05/21 00:25:45;;;;;;;0.00;0.00;;;23.80;69.00;;;;;;4145949;28;20061;-71
2022/05/21 00:28:13;;;;;;;0.00;0.00;;;23.60;70.00;;;;;;4145872;28;20058;-69
2022/05/21 00:30:52;;;;;;;0.00;0.00;;;23.30;70.70;;;;;;4145431;28;20058;-69
2022/05/21 00:33:14;;;;;;;0.00;0.00;;;23.20;71.90;;;;;;4145770;28;20072;-72
2022/05/21 00:35:42;;;;;;;0.00;0.00;;;23.20;73.50;;;;;;4133115;28;20065;-68
2022/05/21 00:38:20;;;;;;;0.00;0.00;;;22.80;76.30;;;;;;4148098;28;20125;-67
2022/05/21 00:40:44;;;;;;;0.00;0.00;;;22.50;78.30;;;;;;4148222;28;20125;-68
2022/05/21 00:43:37;;;;;;;0.00;0.00;;;22.60;79.50;;;;;;4133702;28;20480;-66
2022/05/21 00:46:04;;;;;;;0.00;0.00;;;22.40;81.80;;;;;;4148197;28;20075;-68
2022/05/21 00:48:30;;;;;;;0.00;0.00;;;22.30;82.70;;;;;;4148184;28;20062;-67
2022/05/21 00:51:05;;;;;;;0.00;0.00;;;22.30;83.30;;;;;;4133485;28;20058;-68
2022/05/21 00:53:45;;;;;;;0.00;0.00;;;22.20;83.10;;;;;;4121795;28;20076;-68
2022/05/21 00:56:07;;;;;;;0.00;0.00;;;22.20;83.80;;;;;;4133686;28;20070;-68
2022/05/21 01:01:13;;;;;;;0.00;0.00;;;22.40;83.80;;;;;;4148133;28;20144;-67
2022/05/21 01:03:44;;;;;;;0.00;0.00;;;22.40;83.20;;;;;;4133886;28;20054;-72
2022/05/21 01:06:10;;;;;;;0.00;0.00;;;22.50;83.20;;;;;;4133764;28;20066;-68
2022/05/21 01:08:38;;;;;;;0.00;0.00;;;22.60;82.90;;;;;;4147826;28;20104;-67
2022/05/21 01:11:16;;;;;;;0.00;0.00;;;22.60;83.00;;;;;;4134748;28;20073;-66
2022/05/21 01:13:41;;;;;;;0.00;0.00;;;22.40;83.30;;;;;;4120184;28;20055;-68
2022/05/21 01:16:06;;;;;;;0.00;0.00;;;22.40;83.50;;;;;;4120163;28;20074;-68
2022/05/21 01:18:36;;;;;;;0.00;0.00;;;22.50;83.30;;;;;;4147731;28;20049;-68
2022/05/21 01:21:00;;;;;;;0.00;0.00;;;22.50;83.30;;;;;;4160785;28;20038;-67
2022/05/21 01:23:27;;;;;;;0.00;0.00;;;22.50;83.30;;;;;;4147791;28;20357;-67
2022/05/21 01:25:50;;;;;;;0.00;0.00;;;22.40;83.80;;;;;;4120141;28;20055;-69
2022/05/21 01:28:19;;;;;;;0.00;0.00;;;22.40;83.90;;;;;;4119524;28;20440;-69
2022/05/21 01:31:26;;;;;;;0.00;0.00;;;22.40;84.20;;;;;;4147557;28;20084;-66
2022/05/21 01:34:02;;;;;;;0.00;0.00;;;22.40;84.60;;;;;;4133020;28;20050;-69
2022/05/21 01:36:26;;;;;;;0.00;0.00;;;22.30;84.90;;;;;;4119879;28;20058;-72
2022/05/21 01:38:50;;;;;;;0.00;0.00;;;22.20;85.20;;;;;;4120293;28;20046;-67
2022/05/21 01:41:17;;;;;;;0.00;0.00;;;22.10;85.00;;;;;;4119773;28;20696;-66
2022/05/21 01:46:26;;;;;;;0.00;0.00;;;22.00;85.10;;;;;;4132358;28;20083;-67
2022/05/21 01:48:52;;;;;;;0.00;0.00;;;22.10;85.30;;;;;;4106829;28;20065;-69
2022/05/21 01:51:15;;;;;;;0.00;0.00;;;22.10;85.20;;;;;;4164366;28;20091;-67
2022/05/21 01:53:41;;;;;;;0.00;0.00;;;22.20;85.80;;;;;;4117713;28;20063;-71
2022/05/21 01:56:07;;;;;;;0.00;0.00;;;22.20;85.80;;;;;;4143944;28;20054;-65
2022/05/21 01:58:29;;;;;;;0.00;0.00;;;22.20;86.40;;;;;;4144094;28;20439;-69
2022/05/21 02:00:57;;;;;;;0.00;0.00;;;22.10;86.80;;;;;;4117269;28;20489;-66
2022/05/21 02:03:19;;;;;;;0.00;0.00;;;21.90;88.60;;;;;;4143575;28;20046;-67
2022/05/21 02:05:46;;;;;;;0.00;0.00;;;21.80;88.60;;;;;;4144119;28;20558;-70
2022/05/21 02:08:11;;;;;;;0.00;0.00;;;22.00;88.70;;;;;;4117293;28;20059;-66
2022/05/21 02:10:33;;;;;;;0.00;0.00;;;22.10;88.30;;;;;;4116558;28;20051;-68
2022/05/21 02:12:57;;;;;;;0.00;0.00;;;22.20;88.30;;;;;;4116450;28;20063;-69
2022/05/21 02:15:20;;;;;;;0.00;0.00;;;22.20;88.50;;;;;;4129871;28;20043;-66
2022/05/21 02:17:44;;;;;;;0.00;0.00;;;22.20;88.80;;;;;;4103733;28;20464;-67
2022/05/21 02:20:14;;;;;;;0.00;0.00;;;22.10;89.10;;;;;;4116722;28;20108;-72
2022/05/21 02:22:36;;;;;;;0.00;0.00;;;21.90;89.80;;;;;;4143762;28;20114;-66
2022/05/21 02:24:59;;;;;;;0.00;0.00;;;21.70;90.10;;;;;;4143839;28;20045;-71
2022/05/21 02:27:23;;;;;;;0.00;0.00;;;21.70;90.20;;;;;;4143881;28;20046;-67
2022/05/21 02:29:46;;;;;;;0.00;0.00;;;21.80;90.30;;;;;;4117081;28;20477;-68
2022/05/21 02:32:11;;;;;;;0.00;0.00;;;21.60;90.50;;;;;;4187665;28;20055;-67
2022/05/21 02:34:35;;;;;;;0.00;0.00;;;21.50;90.80;;;;;;4130140;28;20042;-68
2022/05/21 02:39:37;;;;;;;0.00;0.00;;;21.30;91.60;;;;;;4116864;28;20369;-68
2022/05/21 02:42:00;;;;;;;0.00;0.00;;;21.40;91.80;;;;;;4117021;28;20119;-67
2022/05/21 02:44:26;;;;;;;0.00;0.00;;;21.40;91.70;;;;;;4116398;28;20043;-69
2022/05/21 02:46:54;;;;;;;0.00;0.00;;;21.30;91.60;;;;;;4116596;28;20520;-69
2022/05/21 02:49:16;;;;;;;0.00;0.00;;;21.20;91.90;;;;;;4116696;28;20148;-67
2022/05/21 02:51:40;;;;;;;0.00;0.00;;;21.30;92.00;;;;;;4118989;28;20416;-66
2022/05/21 02:54:03;;;;;;;0.00;0.00;;;21.30;91.90;;;;;;4118736;28;20077;-67
2022/05/21 02:56:25;;;;;;;0.00;0.00;;;21.20;92.00;;;;;;4119012;28;20385;-68
2022/05/21 02:58:47;;;;;;;0.00;0.00;;;21.00;92.30;;;;;;4118483;28;20149;-68
2022/05/21 03:01:11;;;;;;;0.00;0.00;;;20.90;92.50;;;;;;4119020;28;20047;-66
2022/05/21 03:03:33;;;;;;;0.00;0.00;;;21.00;92.50;;;;;;4119287;28;20066;-69
2022/05/21 03:05:57;;;;;;;0.00;0.00;;;21.10;92.40;;;;;;4118794;28;20393;-70
2022/05/21 03:11:01;;;;;;;0.00;0.00;;;21.40;91.90;;;;;;4131888;28;20315;-69
2022/05/21 03:13:26;;;;;;;0.00;0.00;;;21.40;91.80;;;;;;4132238;28;20500;-67
2022/05/21 03:15:49;;;;;;;0.00;0.00;;;21.40;91.90;;;;;;4118880;28;20050;-69
2022/05/21 03:18:15;;;;;;;0.00;0.00;;;21.40;92.00;;;;;;4118330;28;20098;-67
2022/05/21 03:20:37;;;;;;;0.00;0.00;;;21.50;91.90;;;;;;4118429;28;20150;-70
2022/05/21 03:23:03;;;;;;;0.00;0.00;;;21.60;91.90;;;;;;4132053;28;20042;-67
2022/05/21 03:25:28;;;;;;;0.00;0.00;;;21.60;92.10;;;;;;4119124;28;20076;-70
2022/05/21 03:27:51;;;;;;;0.00;0.00;;;21.60;92.30;;;;;;4118404;28;20078;-69
2022/05/21 03:30:18;;;;;;;0.00;0.00;;;21.70;92.00;;;;;;4132103;28;20070;-69
2022/05/21 03:32:41;;;;;;;0.00;0.00;;;21.70;91.70;;;;;;4118705;28;20101;-69
2022/05/21 03:35:06;;;;;;;0.00;0.00;;;21.60;91.60;;;;;;4131850;28;20125;-70
2022/05/21 03:37:28;;;;;;;0.00;0.00;;;21.60;91.70;;;;;;4118432;28;20153;-67
2022/05/21 03:39:50;;;;;;;0.00;0.00;;;21.60;91.80;;;;;;4118325;28;20058;-71
2022/05/21 03:42:15;;;;;;;0.00;0.00;;;21.70;91.80;;;;;;4118569;28;20055;-66
2022/05/21 03:44:39;;;;;;;0.00;0.00;;;21.80;91.80;;;;;;4118319;28;20055;-67
2022/05/21 03:47:03;;;;;;;0.00;0.00;;;21.70;91.90;;;;;;4118345;28;20066;-67
2022/05/21 03:49:26;;;;;;;0.00;0.00;;;21.70;92.00;;;;;;4118570;28;20054;-70
2022/05/21 03:51:48;;;;;;;0.00;0.00;;;21.70;92.00;;;;;;4105467;28;20093;-66
2022/05/21 03:54:12;;;;;;;0.00;0.00;;;21.70;91.90;;;;;;4118175;28;20058;-71
2022/05/21 03:56:36;;;;;;;0.00;0.00;;;21.70;91.80;;;;;;4131311;28;20054;-69
2022/05/21 03:59:01;;;;;;;0.00;0.00;;;21.70;91.60;;;;;;4118050;28;20050;-67
2022/05/21 04:01:23;;;;;;;0.00;0.00;;;21.60;91.40;;;;;;4118620;28;20054;-67
2022/05/21 04:03:45;;;;;;;0.00;0.00;;;21.60;91.30;;;;;;4104796;28;20129;-66
2022/05/21 04:06:11;;;;;;;0.00;0.00;;;21.50;91.30;;;;;;4118171;28;20404;-66
2022/05/21 04:08:35;;;;;;;0.00;0.00;;;21.50;91.30;;;;;;4117780;28;20053;-66
2022/05/21 04:11:01;;;;;;;0.00;0.00;;;21.60;91.10;;;;;;4119597;28;20084;-67
2022/05/21 04:13:26;;;;;;;0.00;0.00;;;21.70;91.10;;;;;;4133822;28;20053;-66
2022/05/21 04:15:48;;;;;;;0.00;0.00;;;21.60;91.10;;;;;;4120998;28;20038;-66
2022/05/21 04:18:12;;;;;;;0.00;0.00;;;21.70;91.20;;;;;;4120638;28;20168;-67
2022/05/21 04:20:38;;;;;;;0.00;0.00;;;21.70;91.10;;;;;;4120771;28;20124;-69
2022/05/21 04:23:00;;;;;;;0.00;0.00;;;21.50;91.40;;;;;;4134273;28;20050;-69
2022/05/21 04:25:27;;;;;;;0.00;0.00;;;21.50;91.60;;;;;;4134073;28;20050;-69
2022/05/21 04:27:53;;;;;;;0.00;0.00;;;21.60;91.50;;;;;;4120721;28;20106;-67
2022/05/21 04:30:21;;;;;;;0.00;0.00;;;21.60;91.70;;;;;;4120529;28;20050;-65
2022/05/21 04:32:47;;;;;;;0.00;0.00;;;21.60;91.10;;;;;;4120674;28;20059;-66
2022/05/21 04:35:14;;;;;;;0.00;0.00;;;21.40;90.90;;;;;;4134323;28;20047;-69
2022/05/21 04:37:39;;;;;;;0.00;0.00;;;21.50;90.80;;;;;;4120934;28;20161;-67
2022/05/21 04:40:01;;;;;;;0.00;0.00;;;21.40;90.70;;;;;;4120555;28;20047;-70
2022/05/21 04:42:23;;;;;;;0.00;0.00;;;21.40;90.50;;;;;;4120529;28;20366;-67
2022/05/21 04:44:47;;;;;;;0.00;0.00;;;21.30;90.40;;;;;;4107302;28;20055;-68
2022/05/21 04:47:14;;;;;;;0.00;0.00;;;21.30;90.40;;;;;;4120281;28;20050;-69
2022/05/21 04:49:36;;;;;;;0.00;0.00;;;21.30;90.50;;;;;;4120385;28;20055;-71
2022/05/21 04:52:00;;;;;;;0.00;0.00;;;21.20;90.50;;;;;;4120613;28;20055;-68
2022/05/21 04:54:22;;;;;;;0.00;0.00;;;21.30;90.50;;;;;;4133876;28;20057;-70
2022/05/21 04:56:46;;;;;;;0.00;0.00;;;21.30;90.20;;;;;;4120638;28;20057;-68
2022/05/21 04:59:10;;;;;;;0.00;0.00;;;21.30;90.20;;;;;;4120165;28;20054;-68
2022/05/21 05:01:32;;;;;;;0.00;0.00;;;21.30;90.20;;;;;;4120549;28;20062;-70
2022/05/21 05:03:54;;;;;;;0.00;0.00;;;21.30;90.30;;;;;;4133765;28;20050;-67
2022/05/21 05:06:18;;;;;;;0.00;0.00;;;21.40;90.50;;;;;;4133475;28;20129;-67
2022/05/21 05:08:40;;;;;;;0.00;0.00;;;21.50;90.60;;;;;;4120122;28;20140;-69
2022/05/21 05:11:02;;;;;;;0.00;0.00;;;21.50;90.70;;;;;;4133839;28;20043;-68
2022/05/21 05:13:24;;;;;;;0.00;0.00;;;21.50;90.70;;;;;;4120529;28;20319;-73
2022/05/21 05:15:51;;;;;;;0.00;0.00;;;21.40;90.80;;;;;;4120747;28;20115;-70
2022/05/21 05:18:18;;;;;;;0.00;0.00;;;21.30;90.80;;;;;;4120017;28;20046;-66
2022/05/21 05:20:41;;;;;;;0.00;0.00;;;21.30;90.80;;;;;;4133154;28;20062;-69
2022/05/21 05:23:05;;;;;;;0.00;0.00;;;21.30;90.90;;;;;;4120429;28;20063;-69
2022/05/21 05:25:28;;;;;;;0.00;0.00;;;21.30;90.80;;;;;;4120105;28;20051;-69
2022/05/21 05:27:52;;;;;;;0.00;0.00;;;21.20;90.90;;;;;;4106842;28;20066;-70
2022/05/21 05:30:16;;;;;;;0.00;0.00;;;21.30;91.00;;;;;;4133326;28;20058;-70
2022/05/21 05:32:38;;;;;;;0.00;0.00;;;21.30;91.00;;;;;;4106334;28;20051;-68
2022/05/21 05:35:03;;;;;;;0.00;0.00;;;21.40;90.90;;;;;;4133867;28;20054;-69
2022/05/21 05:37:28;;;;;;;0.00;0.00;;;21.40;90.90;;;;;;4106527;28;20437;-69
2022/05/21 05:39:50;;;;;;;0.00;0.00;;;21.40;90.90;;;;;;4119669;28;20428;-69
2022/05/21 05:42:12;;;;;;;0.00;0.00;;;21.30;91.10;;;;;;4133253;28;20035;-67
2022/05/21 05:44:34;;;;;;;0.00;0.00;;;21.40;91.00;;;;;;4133246;28;20054;-69
2022/05/21 05:46:56;;;;;;;0.00;0.00;;;21.40;91.00;;;;;;4119783;28;20117;-69
2022/05/21 05:49:19;;;;;;;0.00;0.00;;;21.30;91.10;;;;;;4133284;28;20081;-69
2022/05/21 05:51:43;;;;;;;0.00;0.00;;;21.20;91.20;;;;;;4119396;28;20137;-72
2022/05/21 05:54:06;;;;;;;0.00;0.00;;;21.20;91.30;;;;;;4119865;28;20124;-67
2022/05/21 05:56:28;;;;;;;0.00;0.00;;;21.20;91.20;;;;;;4119861;28;20051;-68
2022/05/21 06:01:32;;;;;;;0.00;0.00;;;21.10;91.50;;;;;;4119611;28;20077;-68
2022/05/21 06:03:54;;;;;;;0.00;0.00;;;21.00;91.70;;;;;;4119781;28;20069;-70
2022/05/21 06:06:21;;;;;;;0.00;0.00;;;21.00;91.80;;;;;;4119319;28;20401;-69
2022/05/21 06:08:48;;;;;;;0.00;0.00;;;21.00;91.70;;;;;;4118674;28;20397;-68
2022/05/21 06:11:15;;;;;;;0.00;0.00;;;21.00;91.90;;;;;;4118788;28;20063;-67
2022/05/21 06:13:37;;;;;;;0.00;0.00;;;20.90;92.00;;;;;;4132739;28;20168;-68
2022/05/21 06:16:00;;;;;;;0.00;0.00;;;20.80;92.00;;;;;;4132441;28;20050;-67
2022/05/21 06:18:24;;;;;;;0.00;0.00;;;20.70;92.20;;;;;;4132822;28;20495;-68
2022/05/21 06:20:50;;;;;;;0.00;0.00;;;20.60;92.40;;;;;;4119039;28;20097;-67
2022/05/21 06:23:15;;;;;;;0.00;0.00;;;20.60;92.40;;;;;;4132840;28;20460;-69
2022/05/21 06:25:40;;;;;;;0.00;0.00;;;20.60;92.20;;;;;;4132800;28;20492;-68
2022/05/21 06:28:04;;;;;;;0.00;0.00;;;20.60;92.10;;;;;;4132556;28;20574;-67
2022/05/21 06:30:32;;;;;;;0.00;0.00;;;20.70;91.80;;;;;;4119299;28;20128;-68
2022/05/21 06:32:55;;;;;;;0.00;0.00;;;20.80;91.60;;;;;;4131989;28;20132;-69
2022/05/21 06:35:20;;;;;;;0.00;0.00;;;20.80;91.50;;;;;;4119363;28;20129;-69
2022/05/21 06:37:45;;;;;;;0.00;0.00;;;20.70;91.60;;;;;;4132741;28;20469;-67
2022/05/21 06:40:11;;;;;;;0.00;0.00;;;20.60;91.70;;;;;;4105884;28;20062;-69
2022/05/21 06:42:33;;;;;;;0.00;0.00;;;20.60;91.90;;;;;;4133026;28;20473;-69
2022/05/21 06:44:59;;;;;;;0.00;0.00;;;20.60;91.90;;;;;;4119689;28;20050;-72
2022/05/21 06:47:23;;;;;;;0.00;0.00;;;20.70;91.70;;;;;;4132425;28;20086;-70
2022/05/21 06:49:45;;;;;;;0.00;0.00;;;20.70;91.30;;;;;;4119175;28;20105;-70
2022/05/21 06:52:10;;;;;;;0.00;0.00;;;20.70;91.40;;;;;;4118674;28;20091;-70
2022/05/21 06:54:32;;;;;;;0.00;0.00;;;20.70;91.50;;;;;;4132542;28;20054;-69
2022/05/21 06:56:54;;;;;;;0.00;0.00;;;20.80;91.60;;;;;;4132348;28;20050;-71
2022/05/21 06:59:18;;;;;;;0.00;0.00;;;20.90;91.30;;;;;;4119093;28;20054;-68
2022/05/21 07:01:42;;;;;;;0.00;0.00;;;20.90;91.20;;;;;;4119511;28;20089;-70
2022/05/21 07:04:13;;;;;;;0.00;0.00;;;20.80;91.10;;;;;;4119523;28;20384;-69
2022/05/21 07:09:19;;;;;;;0.00;0.00;;;20.70;91.50;;;;;;4132576;28;20088;-68
2022/05/21 07:11:41;;;;;;;0.00;0.00;;;20.60;91.60;;;;;;4119312;28;20054;-70
2022/05/21 07:14:06;;;;;;;0.00;0.00;;;20.60;91.70;;;;;;4119255;28;20439;-69
2022/05/21 07:16:32;;;;;;;0.00;0.00;;;20.70;91.50;;;;;;4133032;28;20046;-69
2022/05/21 07:18:54;;;;;;;0.00;0.00;;;20.80;91.50;;;;;;4105842;28;20049;-69
2022/05/21 07:21:21;;;;;;;0.00;0.00;;;20.80;91.50;;;;;;4132585;28;20572;-68
2022/05/21 07:23:46;;;;;;;0.00;0.00;;;20.80;91.30;;;;;;4119722;28;20069;-68
2022/05/21 07:26:08;;;;;;;0.00;0.00;;;20.70;91.30;;;;;;4132728;28;20112;-68
2022/05/21 07:28:34;;;;;;;0.00;0.00;;;20.70;91.40;;;;;;4119517;28;20058;-67
2022/05/21 07:31:01;;;;;;;0.00;0.00;;;20.70;91.20;;;;;;4119145;28;20122;-69
2022/05/21 07:33:26;;;;;;;0.00;0.00;;;20.60;91.40;;;;;;4132720;28;20054;-73
2022/05/21 07:35:51;;;;;;;0.00;0.00;;;20.50;91.30;;;;;;4132798;28;20512;-70
2022/05/21 07:38:16;;;;;;;0.00;0.00;;;20.40;91.30;;;;;;4118710;28;20047;-67
2022/05/21 07:40:40;;;;;;;0.00;0.00;;;20.50;91.20;;;;;;4132564;28;20381;-67
2022/05/21 07:43:15;;;;;;;0.00;0.00;;;20.50;90.90;;;;;;4105347;28;20054;-67
2022/05/21 07:45:43;;;;;;;0.00;0.00;;;20.60;90.80;;;;;;4133954;28;20084;-71
2022/05/21 07:48:16;;;;;;;0.00;0.00;;;20.60;90.50;;;;;;4135294;28;20103;-67
2022/05/21 07:50:40;;;;;;;0.00;0.00;;;20.50;90.50;;;;;;4108228;28;20066;-67
2022/05/21 07:53:02;;;;;;;0.00;0.00;;;20.40;90.70;;;;;;4135220;28;20058;-68
2022/05/21 07:55:26;;;;;;;0.00;0.00;;;20.40;90.60;;;;;;4107877;28;20047;-69
2022/05/21 07:57:48;;;;;;;0.00;0.00;;;20.40;90.40;;;;;;4135116;28;20073;-66
2022/05/21 08:00:17;;;;;;;0.00;0.00;;;20.30;90.20;;;;;;4134814;28;20049;-69
2022/05/21 08:02:44;;;;;;;0.00;0.00;;;20.40;90.40;;;;;;4135088;28;20088;-67
2022/05/21 08:05:11;;;;;;;0.00;0.00;;;20.50;90.20;;;;;;4121963;28;20047;-66
2022/05/21 08:07:33;;;;;;;0.00;0.00;;;20.60;90.10;;;;;;4121194;28;20074;-69
2022/05/21 08:09:58;;;;;;;0.00;0.00;;;20.70;90.00;;;;;;4133993;28;20092;-68
2022/05/21 08:12:23;;;;;;;0.00;0.00;;;20.70;89.40;;;;;;4134989;28;20085;-69
2022/05/21 08:14:50;;;;;;;0.00;0.00;;;20.70;89.30;;;;;;4134258;28;20061;-66
2022/05/21 08:17:14;;;;;;;0.00;0.00;;;20.60;89.20;;;;;;4120771;28;20156;-67
2022/05/21 08:19:40;;;;;;;0.00;0.00;;;20.50;88.70;;;;;;4134765;28;20101;-68
2022/05/21 08:27:24;;;;;;;0.00;0.00;;;20.50;89.10;;;;;;4134798;28;20304;-70
2022/05/21 08:29:51;;;;;;;0.00;0.00;;;20.60;88.80;;;;;;4134366;28;20099;-68
2022/05/21 08:32:13;;;;;;;0.00;0.00;;;20.60;88.90;;;;;;4134735;28;20568;-69
2022/05/21 08:34:40;;;;;;;0.00;0.00;;;20.80;88.80;;;;;;4121213;28;20058;-66
2022/05/21 08:37:04;;;;;;;0.00;0.00;;;20.90;88.40;;;;;;4121083;28;20050;-67
2022/05/21 08:39:29;;;;;;;0.00;0.00;;;20.90;87.90;;;;;;4134657;28;20046;-67
2022/05/21 08:41:56;;;;;;;0.00;0.00;;;20.90;87.70;;;;;;4134348;28;20054;-69
2022/05/21 08:44:34;;;;;;;0.00;0.00;;;21.00;87.40;;;;;;4120792;28;20120;-66
2022/05/21 08:47:11;;;;;;;0.00;0.00;;;21.20;87.40;;;;;;4121201;28;20182;-68
2022/05/21 08:49:51;;;;;;;0.00;0.00;;;21.30;87.10;;;;;;4107918;28;20065;-69
2022/05/21 08:52:38;;;;;;;0.00;0.00;;;21.40;86.70;;;;;;4134404;28;20485;-70
2022/05/21 08:55:03;;;;;;;0.00;0.00;;;21.50;86.00;;;;;;4121431;28;20378;-67
2022/05/21 08:57:42;;;;;;;0.00;0.00;;;21.50;85.50;;;;;;4134107;28;20116;-67
2022/05/21 09:00:14;;;;;;;0.00;0.00;;;21.60;85.40;;;;;;4120856;28;20039;-67
2022/05/21 09:02:39;;;;;;;0.00;0.00;;;21.60;85.30;;;;;;4134255;28;20496;-68
2022/05/21 09:05:06;;;;;;;0.00;0.00;;;21.60;84.70;;;;;;4177233;28;20050;-67
2022/05/21 09:07:38;;;;;;;0.00;0.00;;;21.40;84.90;;;;;;4120890;28;20089;-68
2022/05/21 09:10:27;;;;;;;0.00;0.00;;;21.40;85.40;;;;;;4121302;28;20477;-70
2022/05/21 09:12:58;;;;;;;0.00;0.00;;;21.60;85.00;;;;;;4120829;28;20078;-66
2022/05/21 09:18:09;;;;;;;0.00;0.00;;;22.10;84.30;;;;;;4134302;28;20059;-68
2022/05/21 09:20:44;;;;;;;0.00;0.00;;;22.30;83.70;;;;;;4107323;28;20513;-70
2022/05/21 09:23:06;;;;;;;0.00;0.00;;;22.40;84.00;;;;;;4120509;28;20054;-68
2022/05/21 09:25:30;;;;;;;0.00;0.00;;;22.60;82.90;;;;;;4106909;28;20158;-70
2022/05/21 09:28:08;;;;;;;0.00;0.00;;;22.80;81.90;;;;;;4120455;28;20107;-69
2022/05/21 09:30:35;;;;;;;0.00;0.00;;;22.90;81.00;;;;;;4133965;28;20050;-67
2022/05/21 09:33:20;;;;;;;0.00;0.00;;;23.00;81.10;;;;;;4134131;28;20050;-68
2022/05/21 09:35:56;;;;;;;0.00;0.00;;;22.90;81.30;;;;;;4134009;28;20448;-68
2022/05/21 09:38:27;;;;;;;0.00;0.00;;;22.80;80.90;;;;;;4106731;28;20066;-68
2022/05/21 09:41:02;;;;;;;0.00;0.00;;;22.70;80.60;;;;;;4120402;28;20458;-70
2022/05/21 09:46:18;;;;;;;0.00;0.00;;;22.70;80.60;;;;;;4133750;28;20042;-67
2022/05/21 09:48:42;;;;;;;0.00;0.00;;;22.70;80.70;;;;;;4133491;28;20047;-68
2022/05/21 09:51:22;;;;;;;0.00;0.00;;;22.50;81.30;;;;;;4133131;28;20094;-69
2022/05/21 09:53:46;;;;;;;0.00;0.00;;;22.60;81.60;;;;;;4120039;28;20057;-68
2022/05/21 09:56:24;;;;;;;0.00;0.00;;;22.60;81.50;;;;;;4184846;28;20056;-68
2022/05/21 09:58:52;;;;;;;0.00;0.00;;;22.70;81.60;;;;;;4120155;28;20046;-68
2022/05/21 10:01:36;;;;;;;0.00;0.00;;;22.70;82.30;;;;;;4149148;28;20075;-67
2022/05/21 10:04:00;;;;;;;0.00;0.00;;;22.70;81.00;;;;;;4136633;28;20062;-67
2022/05/21 10:06:31;;;;;;;0.00;0.00;;;22.60;81.20;;;;;;4218052;28;20075;-67
2022/05/21 10:12:07;;;;;;;0.00;0.00;;;22.50;82.10;;;;;;4132587;28;20346;-69
2022/05/21 10:14:40;;;;;;;0.00;0.00;;;22.40;83.40;;;;;;4143551;28;20049;-68
2022/05/21 10:17:20;;;;;;;0.00;0.00;;;22.50;83.30;;;;;;4135223;28;20456;-67
2022/05/21 10:19:54;;;;;;;0.00;0.00;;;22.70;83.20;;;;;;4132651;28;20054;-69
2022/05/21 10:22:42;;;;;;;0.00;0.00;;;22.80;82.40;;;;;;4132831;28;20066;-68
2022/05/21 10:25:14;;;;;;;0.00;0.00;;;22.80;82.60;;;;;;4119727;28;20526;-70
2022/05/21 10:27:54;;;;;;;0.00;0.00;;;23.00;80.90;;;;;;4119395;28;20408;-69
2022/05/21 10:30:32;;;;;;;0.00;0.00;;;23.10;80.50;;;;;;4181663;28;20110;-68
2022/05/21 10:33:12;;;;;;;0.00;0.00;;;23.00;80.40;;;;;;4218189;28;20054;-67
2022/05/21 10:35:40;;;;;;;0.00;0.00;;;22.90;80.50;;;;;;4194608;28;20095;-67
2022/05/21 10:38:23;;;;;;;0.00;0.00;;;22.90;81.00;;;;;;4119244;28;20055;-71
2022/05/21 10:41:23;;;;;;;0.00;0.00;;;23.10;81.30;;;;;;4119347;28;20148;-70
2022/05/21 10:44:15;;;;;;;0.00;0.00;;;23.00;81.80;;;;;;4156968;28;20461;-67
2022/05/21 10:47:11;;;;;;;0.00;0.00;;;23.00;82.20;;;;;;4119323;28;20105;-68
2022/05/21 10:49:54;;;;;;;0.00;0.00;;;23.00;82.40;;;;;;4134653;28;20469;-68
2022/05/21 10:52:44;;;;;;;0.00;0.00;;;23.10;81.80;;;;;;4132739;28;20042;-67
2022/05/21 10:55:34;;;;;;;0.00;0.00;;;23.30;81.20;;;;;;4132653;28;20054;-68
2022/05/21 10:58:06;;;;;;;0.00;0.00;;;23.40;81.30;;;;;;4132882;28;20061;-68
2022/05/21 11:00:37;;;;;;;0.00;0.00;;;23.50;80.60;;;;;;4119308;28;20477;-67
2022/05/21 11:03:27;;;;;;;0.00;0.00;;;23.50;80.60;;;;;;4134942;28;20057;-69
2022/05/21 11:06:25;;;;;;;0.00;0.00;;;23.40;80.00;;;;;;4217296;28;20048;-68
2022/05/21 11:09:02;;;;;;;0.00;0.00;;;23.30;80.30;;;;;;4161283;28;20054;-67
2022/05/21 11:11:46;;;;;;;0.00;0.00;;;23.50;81.90;;;;;;4202084;28;20415;-67
2022/05/21 11:14:18;;;;;;;0.00;0.00;;;23.30;80.70;;;;;;4216775;28;20047;-69
2022/05/21 11:17:03;;;;;;;0.00;0.00;;;23.30;81.50;;;;;;4217012;28;20058;-70
2022/05/21 11:19:51;;;;;;;0.00;0.00;;;23.20;81.20;;;;;;4217289;28;20073;-68
2022/05/21 11:22:28;;;;;;;0.00;0.00;;;23.30;80.80;;;;;;4216749;28;20149;-68
2022/05/21 11:25:06;;;;;;;0.00;0.00;;;23.50;80.50;;;;;;4217297;28;20044;-68
2022/05/21 11:27:37;;;;;;;0.00;0.00;;;23.50;81.30;;;;;;4217276;28;20054;-71
2022/05/21 11:30:04;;;;;;;;;;;23.50;80.40;;;;;;4217907;28;20466;-70
2022/05/21 11:38:15;;;;;;;0.00;0.00;;;24.00;79.50;;;;;;4216892;28;20113;-71
2022/05/21 11:43:56;;;;;;;;;;;24.30;79.40;;;;;;4217578;28;20098;-68
2022/05/21 11:46:20;;;;;;;0.00;0.00;;;24.40;79.00;;;;;;4217066;28;20086;-69
2022/05/21 11:48:44;;;;;;;0.00;0.00;;;24.60;79.10;;;;;;4217209;28;20422;-70
2022/05/21 11:51:17;;;;;;;0.00;0.00;;;24.80;78.50;;;;;;4203095;28;20056;-69
2022/05/21 11:53:39;;;;;;;;;;;24.80;76.50;;;;;;4231758;28;20051;-69
2022/05/21 11:56:08;;;;;;;0.00;0.00;;;24.60;77.20;;;;;;4231578;28;20269;-69
2022/05/21 11:58:58;;;;;;;0.00;0.00;;;24.60;77.30;;;;;;4202803;28;20060;-69
2022/05/21 12:01:41;;;;;;;0.00;0.00;;;24.50;77.40;;;;;;4216936;28;20078;-69
2022/05/21 12:04:22;;;;;;;0.00;0.00;;;24.40;77.60;;;;;;4216893;28;20101;-69
2022/05/21 12:06:44;;;;;;;0.00;0.00;;;24.40;76.80;;;;;;4216852;28;20071;-70
2022/05/21 12:09:26;;;;;;;0.00;0.00;;;24.20;76.60;;;;;;4216910;28;20141;-68
2022/05/21 12:11:48;;;;;;;0.00;0.00;;;24.20;76.90;;;;;;4202866;28;20048;-69
2022/05/21 12:14:20;;;;;;;0.00;0.00;;;24.00;76.80;;;;;;4189051;28;20052;-68
2022/05/21 12:16:48;;;;;;;0.00;0.00;;;24.00;76.60;;;;;;4216899;28;20418;-67
2022/05/21 12:19:59;;;;;;;0.00;0.00;;;24.00;76.70;;;;;;4202866;28;20087;-68
2022/05/21 12:22:42;;;;;;;0.00;0.00;;;23.90;76.70;;;;;;4210972;28;20070;-68
2022/05/21 12:25:07;;;;;;;0.00;0.00;;;23.90;76.70;;;;;;4217075;28;20056;-69
2022/05/21 12:27:29;;;;;;;0.00;0.00;;;24.00;74.90;;;;;;4189495;28;20759;-68
2022/05/21 12:30:00;;;;;;;0.00;0.00;;;24.00;75.50;;;;;;4216638;28;20048;-67
2022/05/21 12:32:25;;;;;;;0.00;0.00;;;24.00;74.00;;;;;;4219872;28;20074;-66
2022/05/21 12:35:21;;;;;;;0.00;0.00;;;24.20;74.30;;;;;;4220044;28;20278;-68
2022/05/21 12:37:50;;;;;;;0.00;0.00;;;24.30;73.10;;;;;;4205988;28;20406;-68
2022/05/21 12:40:34;;;;;;;0.00;0.00;;;24.30;73.40;;;;;;4219869;28;20052;-68
2022/05/21 12:43:10;;;;;;;0.00;0.00;;;24.40;73.90;;;;;;4219640;28;20121;-68
2022/05/21 12:45:50;;;;;;;0.00;0.00;;;24.50;72.90;;;;;;4205226;28;20052;-69
2022/05/21 12:48:34;;;;;;;0.00;0.00;;;24.50;73.20;;;;;;4192180;28;20064;-68
2022/05/21 12:50:59;;;;;;;0.00;0.00;;;24.40;73.90;;;;;;4205184;28;20056;-66
2022/05/21 12:53:30;;;;;;;0.00;0.00;;;24.40;74.30;;;;;;4219911;28;20057;-69
2022/05/21 12:56:03;;;;;;;0.00;0.00;;;24.60;73.50;;;;;;4205773;28;20067;-68
2022/05/21 12:58:28;;;;;;;0.00;0.00;;;24.60;73.50;;;;;;4219451;28;20051;-66
2022/05/21 13:00:59;;;;;;;0.00;0.00;;;24.50;72.80;;;;;;4205232;28;20076;-70
2022/05/21 13:03:22;;;;;;;;;;;24.50;74.10;;;;;;4220072;28;20098;-67
2022/05/21 13:05:57;;;;;;;0.00;0.00;;;24.70;73.60;;;;;;4191427;28;19966;-69
2022/05/21 13:08:22;;;;;;;0.00;0.00;;;24.80;73.80;;;;;;4177894;28;20045;-66
2022/05/21 13:11:31;;;;;;;0.00;0.00;;;25.00;72.50;;;;;;4143539;28;20047;-66
2022/05/21 13:14:13;;;;;;;0.00;0.00;;;25.00;72.00;;;;;;4120304;28;20093;-69
2022/05/21 13:16:44;;;;;;;0.00;0.00;;;24.90;72.50;;;;;;4133576;28;20491;-66
2022/05/21 13:19:12;;;;;;;0.00;0.00;;;24.90;72.40;;;;;;4134258;28;20054;-70
2022/05/21 13:21:56;;;;;;;0.00;0.00;;;25.00;72.30;;;;;;4120110;28;20058;-67
2022/05/21 13:24:27;;;;;;;0.00;0.00;;;25.20;71.10;;;;;;4134107;28;20059;-70
2022/05/21 13:27:16;;;;;;;0.00;0.00;;;25.20;71.20;;;;;;4133881;28;20058;-69
2022/05/21 13:29:43;;;;;;;0.00;0.00;;;25.10;70.70;;;;;;4120736;28;20059;-70
2022/05/21 13:32:24;;;;;;;0.00;0.00;;;25.00;71.60;;;;;;4134059;28;20062;-68
2022/05/21 13:34:49;;;;;;;0.00;0.00;;;25.00;72.70;;;;;;4134087;28;20097;-69